Bookmark and Share
Track history (hours):
 

Buchanan 10

More information available from US FCC via Universal Licensing System and Coast Guard Vessel Documentation Center.

Last reported at 2013-Jan-07 03:33 UTC. Time now 2014-Apr-18 08:03 UTC.
Position N 40°44' W 073°58'.
Warning: this ship's position is years out of date!

MMSI: 366985728.

NotesDate/timePositionNaut miles runAvg speedWind from/ knotsBaromVisibWave heightAir tempDewpointWater temp
2013-Jan-07 03:33N 40°44' W 073°58'2 2.3
2013-Jan-07 02:33N 40°42' W 074°00'3 2.6
2013-Jan-07 01:33N 40°40' W 074°03'1 0.7
2013-Jan-07 00:33N 40°40' W 074°03'0 0.0
2013-Jan-06 23:33N 40°40' W 074°03'2 2.4
2013-Jan-06 22:34N 40°42' W 074°02'5 0.2
2013-Jan-05 14:29N 40°46' W 073°57'4 4.4
2013-Jan-05 13:33N 40°42' W 073°60'4 3.9
2013-Jan-05 12:33N 40°40' W 074°03'0 0.3
2013-Jan-05 11:39N 40°40' W 074°03'6 5.3
2013-Jan-05 10:33N 40°44' W 073°58'3 0.5
2013-Jan-05 03:30N 40°47' W 073°55'7 7.1
2013-Jan-05 02:33N 40°41' W 074°01'4 4.2
2013-Jan-05 01:33N 40°39' W 074°05'4 3.8
2013-Jan-05 00:33N 40°43' W 074°07'0 0.0
2013-Jan-04 23:33N 40°43' W 074°07'4 3.6
2013-Jan-04 22:33N 40°39' W 074°09'7 7.1
2013-Jan-04 21:33N 40°42' W 074°00'  
2012-Dec-30 22:31N 40°46' W 073°57'4 4.4
2012-Dec-30 21:33N 40°42' W 074°00'3 3.3
2012-Dec-30 20:33N 40°40' W 074°03'0 0.0
2012-Dec-30 19:33N 40°40' W 074°03'0 0.0
2012-Dec-30 18:33N 40°40' W 074°03'5 5.1
2012-Dec-30 17:34N 40°43' W 073°58'2 0.2
2012-Dec-30 10:33N 40°42' W 074°00'3 3.4
2012-Dec-30 09:33N 40°40' W 074°03'3 2.6
2012-Dec-30 08:33N 40°39' W 074°07'1 0.4
2012-Dec-30 06:33N 40°39' W 074°07'3 4.9
2012-Dec-30 05:52N 40°40' W 074°03'5 3.6
2012-Dec-30 04:34N 40°43' W 073°58'2 0.1
2012-Dec-29 09:33N 40°45' W 073°58'4 3.6
2012-Dec-29 08:33N 40°42' W 074°00'3 3.1
2012-Dec-29 07:33N 40°40' W 074°03'0 0.1
2012-Dec-29 05:43N 40°40' W 074°03'1 0.4
2012-Dec-29 04:33N 40°40' W 074°03'3 2.6
2012-Dec-29 03:33N 40°43' W 074°02'1 0.2
2012-Dec-28 21:33N 40°44' W 074°01'4 4.2
2012-Dec-28 20:33N 40°40' W 074°03'4 3.8
2012-Dec-28 19:33N 40°42' W 073°60'  

Dump ship's entire track history

sailing weather and tide predictions

Buchanan 10 — WDC2494 — position and weather